Time;durP1;ratioP1;P1;durP2;ratioP2;P2;SDS_P1;SDS_P2;PMS_P1;PMS_P2;Temp;Humidity;BMP_temperature;BMP_pressure;BME280_temperature;BME280_humidity;BME280_pressure;Samples;Min_cycle;Max_cycle;Signal;HPM_P1;HPM_P2
2022/01/19 00:01:15;;;;;;;49.33;22.75;;;;;;;;;;6078398;23;20053;-89
2022/01/19 00:03:41;;;;;;;50.72;23.30;;;;;;;;;;6103140;23;20013;-89
2022/01/19 00:06:08;;;;;;;54.67;22.15;;;;;;;;;;6079017;23;20021;-89
2022/01/19 00:08:34;;;;;;;51.28;23.67;;;;;;;;;;6102195;23;20014;-89
2022/01/19 00:11:00;;;;;;;46.78;22.02;;;;;;;;;;6078078;23;20478;-89
2022/01/19 00:13:26;;;;;;;46.90;22.73;;;;;;;;;;6078625;23;20018;-89
2022/01/19 00:15:53;;;;;;;45.60;20.20;;;;;;;;;;6182856;23;20468;-89
2022/01/19 00:18:20;;;;;;;52.03;22.98;;;;;;;;;;6216265;23;20016;-89
2022/01/19 00:20:47;;;;;;;45.40;22.65;;;;;;;;;;6191165;23;20025;-89
2022/01/19 00:23:15;;;;;;;53.83;23.40;;;;;;;;;;6191260;23;20009;-89
2022/01/19 00:25:42;;;;;;;66.47;22.63;;;;;;;;;;6191103;23;20095;-90
2022/01/19 00:28:08;;;;;;;50.88;24.90;;;;;;;;;;6190760;23;20017;-90
2022/01/19 00:30:34;;;;;;;63.05;23.45;;;;;;;;;;6190537;23;20020;-90
2022/01/19 00:33:00;;;;;;;47.80;20.40;;;;;;;;;;6190469;23;20078;-90
2022/01/19 00:35:26;;;;;;;57.40;24.63;;;;;;;;;;6190687;23;20020;-90
2022/01/19 00:37:52;;;;;;;47.78;21.42;;;;;;;;;;6190862;23;20100;-89
2022/01/19 00:40:18;;;;;;;41.10;20.42;;;;;;;;;;6190817;23;20023;-89
2022/01/19 00:42:45;;;;;;;37.55;19.33;;;;;;;;;;6190574;23;20020;-89
2022/01/19 00:45:12;;;;;;;36.05;19.27;;;;;;;;;;6189930;23;20024;-90
2022/01/19 00:47:38;;;;;;;45.33;21.88;;;;;;;;;;6216162;23;20019;-90
2022/01/19 00:50:05;;;;;;;46.83;22.92;;;;;;;;;;6190801;23;20023;-90
2022/01/19 00:52:31;;;;;;;46.35;23.27;;;;;;;;;;6190518;23;20083;-90
2022/01/19 00:54:57;;;;;;;46.33;21.65;;;;;;;;;;6215525;23;20020;-90
2022/01/19 00:57:23;;;;;;;40.65;21.38;;;;;;;;;;6217016;23;20071;-90
2022/01/19 00:59:51;;;;;;;53.47;23.77;;;;;;;;;;6215963;23;20020;-90
2022/01/19 01:02:17;;;;;;;48.45;22.23;;;;;;;;;;6215113;23;20013;-90
2022/01/19 01:04:43;;;;;;;43.70;23.63;;;;;;;;;;6190243;23;20016;-90
2022/01/19 01:07:09;;;;;;;45.45;23.52;;;;;;;;;;6190269;23;20328;-90
2022/01/19 01:09:35;;;;;;;53.40;26.15;;;;;;;;;;6215502;23;20013;-90
2022/01/19 01:12:10;;;;;;;52.50;23.60;;;;;;;;;;6190547;23;20477;-89
2022/01/19 01:20:12;;;;;;;44.72;23.08;;;;;;;;;;6101033;23;20022;-89
2022/01/19 01:22:38;;;;;;;39.42;20.77;;;;;;;;;;6077002;23;20014;-90
2022/01/19 01:25:05;;;;;;;49.35;25.23;;;;;;;;;;6076531;23;20014;-90
2022/01/19 01:27:31;;;;;;;58.10;25.92;;;;;;;;;;6076866;23;20018;-90
2022/01/19 01:29:57;;;;;;;39.42;20.95;;;;;;;;;;6077022;23;20013;-91
2022/01/19 01:32:23;;;;;;;52.45;26.95;;;;;;;;;;6076873;23;20018;-91
2022/01/19 01:34:50;;;;;;;66.45;28.92;;;;;;;;;;6076478;23;20534;-91
2022/01/19 01:37:17;;;;;;;51.03;26.40;;;;;;;;;;6076967;23;20109;-91
2022/01/19 01:39:43;;;;;;;51.40;22.83;;;;;;;;;;6077641;23;20101;-91
2022/01/19 01:42:10;;;;;;;55.30;26.30;;;;;;;;;;6077027;23;20021;-92
2022/01/19 01:44:38;;;;;;;58.60;27.40;;;;;;;;;;6100383;23;20114;-92
2022/01/19 01:47:04;;;;;;;63.00;24.45;;;;;;;;;;6077099;23;20037;-91
2022/01/19 01:54:54;;;;;;;47.05;24.73;;;;;;;;;;6180380;23;20023;-91
2022/01/19 01:57:20;;;;;;;54.42;26.17;;;;;;;;;;6190609;23;20028;-91
2022/01/19 01:59:46;;;;;;;49.47;25.30;;;;;;;;;;6190238;23;20055;-91
2022/01/19 02:02:12;;;;;;;59.90;24.38;;;;;;;;;;6189638;23;20106;-91
2022/01/19 02:04:41;;;;;;;59.95;23.55;;;;;;;;;;6189949;23;20019;-91
2022/01/19 02:10:28;;;;;;;51.97;22.67;;;;;;;;;;6100557;23;20022;-91
2022/01/19 02:23:51;;;;;;;72.57;26.55;;;;;;;;;;6100266;23;20032;-91
2022/01/19 02:26:28;;;;;;;53.78;25.17;;;;;;;;;;6076410;23;20022;-92
2022/01/19 02:29:37;;;;;;;53.92;23.13;;;;;;;;;;6077078;23;20046;-90
2022/01/19 02:42:51;;;;;;;61.53;29.27;;;;;;;;;;6101401;23;20467;-92
2022/01/19 02:50:28;;;;;;;61.25;25.67;;;;;;;;;;6215519;23;20476;-92
2022/01/19 02:52:54;;;;;;;78.13;31.05;;;;;;;;;;6191382;23;20023;-92
2022/01/19 02:55:20;;;;;;;67.95;29.10;;;;;;;;;;6192829;23;20390;-91
2022/01/19 02:57:47;;;;;;;61.55;28.83;;;;;;;;;;6192411;23;20031;-90
2022/01/19 03:08:47;;;;;;;80.18;34.20;;;;;;;;;;6217163;23;20024;-91
2022/01/19 03:11:16;;;;;;;74.13;28.70;;;;;;;;;;6193021;23;20021;-91
2022/01/19 03:13:43;;;;;;;71.93;29.92;;;;;;;;;;6217280;23;20066;-90
2022/01/19 03:16:09;;;;;;;71.05;30.73;;;;;;;;;;6192157;23;20473;-90
2022/01/19 03:18:35;;;;;;;57.65;28.10;;;;;;;;;;6193610;23;20013;-91
2022/01/19 03:21:01;;;;;;;73.20;30.40;;;;;;;;;;6191683;23;20017;-89
2022/01/19 03:23:27;;;;;;;66.60;27.40;;;;;;;;;;6191352;23;20017;-89
2022/01/19 03:25:54;;;;;;;66.20;28.05;;;;;;;;;;6191443;23;20020;-90
2022/01/19 03:28:20;;;;;;;62.05;26.83;;;;;;;;;;6215951;23;20466;-89
2022/01/19 03:30:48;;;;;;;58.92;25.95;;;;;;;;;;6216331;23;20504;-89
2022/01/19 03:33:14;;;;;;;67.57;24.73;;;;;;;;;;6191092;23;20458;-89
2022/01/19 03:35:40;;;;;;;56.58;23.45;;;;;;;;;;6191155;23;20476;-89
2022/01/19 03:38:07;;;;;;;59.95;25.92;;;;;;;;;;6216462;23;20017;-89
2022/01/19 03:40:33;;;;;;;61.72;23.17;;;;;;;;;;6191255;23;20389;-89
2022/01/19 03:43:00;;;;;;;51.72;23.70;;;;;;;;;;6191045;23;20016;-89
2022/01/19 03:45:26;;;;;;;71.10;24.40;;;;;;;;;;6191088;23;20024;-89
2022/01/19 03:48:06;;;;;;;57.33;26.45;;;;;;;;;;6190898;23;20012;-89
2022/01/19 03:50:33;;;;;;;56.47;21.67;;;;;;;;;;6191399;23;20068;-89
2022/01/19 03:52:59;;;;;;;58.10;25.60;;;;;;;;;;6215661;23;20389;-89
2022/01/19 03:55:25;;;;;;;68.72;24.27;;;;;;;;;;6191114;23;20091;-89
2022/01/19 03:57:51;;;;;;;74.50;28.25;;;;;;;;;;6191445;23;20095;-89
2022/01/19 04:00:19;;;;;;;67.93;26.23;;;;;;;;;;6191524;23;20023;-89
2022/01/19 04:02:45;;;;;;;69.75;25.30;;;;;;;;;;6191310;23;20013;-91
2022/01/19 04:05:20;;;;;;;74.15;25.90;;;;;;;;;;6190824;23;20350;-92
2022/01/19 04:07:46;;;;;;;72.15;26.25;;;;;;;;;;6190593;23;20053;-91
2022/01/19 04:10:13;;;;;;;77.75;25.73;;;;;;;;;;6191060;23;20019;-91
2022/01/19 04:12:45;;;;;;;67.35;24.67;;;;;;;;;;6216020;23;20017;-92
2022/01/19 04:15:12;;;;;;;63.78;25.30;;;;;;;;;;6191016;23;20013;-91
2022/01/19 04:17:44;;;;;;;57.33;22.55;;;;;;;;;;6190775;23;20017;-91
2022/01/19 04:20:11;;;;;;;74.35;23.70;;;;;;;;;;6190792;23;20346;-91
2022/01/19 04:22:37;;;;;;;57.88;23.88;;;;;;;;;;6191309;23;20018;-91
2022/01/19 04:25:03;;;;;;;69.88;24.00;;;;;;;;;;6191065;23;20056;-91
2022/01/19 04:32:31;;;;;;;48.78;18.50;;;;;;;;;;6215964;23;20017;-92
2022/01/19 04:34:59;;;;;;;62.92;20.35;;;;;;;;;;6190626;23;20351;-92
2022/01/19 04:37:37;;;;;;;54.45;20.33;;;;;;;;;;6190381;23;20457;-92
2022/01/19 04:45:59;;;;;;;45.20;18.73;;;;;;;;;;6215884;23;20021;-92
2022/01/19 05:15:48;;;;;;;49.40;20.85;;;;;;;;;;6043661;23;20033;-91
2022/01/19 05:18:14;;;;;;;45.90;21.13;;;;;;;;;;6043365;23;20030;-90
2022/01/19 05:20:40;;;;;;;51.83;20.73;;;;;;;;;;6043812;23;20079;-91
2022/01/19 05:23:06;;;;;;;53.85;21.55;;;;;;;;;;6067694;23;20029;-93
2022/01/19 05:25:32;;;;;;;47.78;21.52;;;;;;;;;;6044601;23;20046;-91
2022/01/19 05:27:58;;;;;;;41.25;19.77;;;;;;;;;;6079033;23;20372;-90
2022/01/19 05:30:24;;;;;;;52.92;21.10;;;;;;;;;;6077036;23;20069;-91
2022/01/19 05:32:50;;;;;;;52.63;20.15;;;;;;;;;;6076640;23;20014;-91
2022/01/19 05:35:17;;;;;;;44.78;20.92;;;;;;;;;;6076917;23;20035;-91
2022/01/19 05:37:43;;;;;;;54.20;22.40;;;;;;;;;;6100373;23;20436;-90
2022/01/19 05:40:11;;;;;;;46.30;20.80;;;;;;;;;;6076803;23;20021;-90
2022/01/19 05:42:37;;;;;;;45.90;18.08;;;;;;;;;;6076822;23;20336;-90
2022/01/19 05:45:04;;;;;;;49.67;19.80;;;;;;;;;;6141793;23;20047;-90
2022/01/19 05:47:30;;;;;;;47.58;19.35;;;;;;;;;;6215385;23;20446;-90
2022/01/19 05:49:56;;;;;;;45.15;19.90;;;;;;;;;;6189771;23;20081;-90
2022/01/19 05:52:22;;;;;;;53.90;19.92;;;;;;;;;;6189612;23;20017;-90
2022/01/19 05:54:48;;;;;;;43.00;19.48;;;;;;;;;;6215231;23;20008;-90
2022/01/19 05:57:14;;;;;;;40.65;18.20;;;;;;;;;;6189347;23;20163;-90
2022/01/19 05:59:41;;;;;;;50.08;19.40;;;;;;;;;;6214828;23;20025;-90
2022/01/19 06:02:07;;;;;;;42.67;18.27;;;;;;;;;;6214552;23;20021;-91
2022/01/19 06:04:33;;;;;;;45.25;18.63;;;;;;;;;;6189956;23;20023;-90
2022/01/19 06:07:01;;;;;;;46.58;18.60;;;;;;;;;;6189530;23;20048;-90
2022/01/19 06:09:35;;;;;;;44.90;18.55;;;;;;;;;;6189810;23;20131;-90
2022/01/19 06:12:09;;;;;;;40.35;19.67;;;;;;;;;;6190272;23;20013;-90
2022/01/19 06:14:36;;;;;;;40.22;18.88;;;;;;;;;;6188706;23;20028;-89
2022/01/19 06:17:03;;;;;;;38.85;17.58;;;;;;;;;;6189222;23;20051;-91
2022/01/19 06:19:29;;;;;;;47.17;19.67;;;;;;;;;;6189126;23;20021;-91
2022/01/19 06:21:55;;;;;;;42.03;16.73;;;;;;;;;;6189726;23;20469;-92
2022/01/19 06:24:21;;;;;;;43.38;18.98;;;;;;;;;;6189582;23;20071;-91
2022/01/19 06:26:47;;;;;;;43.40;19.40;;;;;;;;;;6190667;23;20095;-92
2022/01/19 06:29:13;;;;;;;42.80;21.08;;;;;;;;;;6191324;23;20016;-92
2022/01/19 06:31:39;;;;;;;45.10;19.08;;;;;;;;;;6192699;23;20405;-91
2022/01/19 06:34:05;;;;;;;42.03;18.65;;;;;;;;;;6191612;23;20052;-92
2022/01/19 06:36:31;;;;;;;45.92;19.88;;;;;;;;;;6217935;23;20020;-92
2022/01/19 06:38:58;;;;;;;42.15;18.27;;;;;;;;;;6193073;23;20020;-91
2022/01/19 06:41:24;;;;;;;37.88;18.08;;;;;;;;;;6217259;23;20025;-91
2022/01/19 06:43:50;;;;;;;41.88;17.58;;;;;;;;;;6191815;23;20017;-91
2022/01/19 06:46:16;;;;;;;41.83;15.82;;;;;;;;;;6191972;23;20079;-91
2022/01/19 06:48:42;;;;;;;39.05;16.92;;;;;;;;;;6191425;23;20074;-91
2022/01/19 06:51:08;;;;;;;35.92;18.42;;;;;;;;;;6190544;23;20020;-91
2022/01/19 06:53:34;;;;;;;46.50;17.63;;;;;;;;;;6191496;23;20016;-91
2022/01/19 06:56:00;;;;;;;43.60;20.17;;;;;;;;;;6192874;23;20342;-91
2022/01/19 06:58:27;;;;;;;31.95;16.85;;;;;;;;;;6193063;23;20299;-90
2022/01/19 07:00:54;;;;;;;48.22;19.20;;;;;;;;;;6192352;23;20017;-90
2022/01/19 07:03:20;;;;;;;35.67;19.45;;;;;;;;;;6217435;23;20016;-90
2022/01/19 07:05:46;;;;;;;41.58;19.00;;;;;;;;;;6191303;23;20477;-90
2022/01/19 07:08:12;;;;;;;37.33;17.95;;;;;;;;;;6191455;23;20032;-90
2022/01/19 07:10:38;;;;;;;41.55;19.45;;;;;;;;;;6190108;23;20029;-91
2022/01/19 07:13:05;;;;;;;47.17;20.48;;;;;;;;;;6191109;23;20048;-90
2022/01/19 07:15:31;;;;;;;42.85;18.52;;;;;;;;;;6191175;23;20024;-90
2022/01/19 07:17:57;;;;;;;41.83;19.30;;;;;;;;;;6191177;23;20401;-90
2022/01/19 07:20:23;;;;;;;46.85;20.30;;;;;;;;;;6216670;23;20023;-90
2022/01/19 07:22:49;;;;;;;39.78;18.77;;;;;;;;;;6215828;23;20100;-90
2022/01/19 07:25:17;;;;;;;40.35;18.95;;;;;;;;;;6191796;23;20013;-91
2022/01/19 07:27:43;;;;;;;41.67;19.55;;;;;;;;;;6216005;23;20013;-90
2022/01/19 07:30:10;;;;;;;47.42;20.10;;;;;;;;;;6190367;23;20027;-90
2022/01/19 07:32:37;;;;;;;48.72;20.00;;;;;;;;;;6215194;23;20516;-90
2022/01/19 07:35:04;;;;;;;47.85;19.40;;;;;;;;;;6189639;23;20013;-90
2022/01/19 07:37:30;;;;;;;40.22;19.45;;;;;;;;;;6190689;23;20016;-90
2022/01/19 07:39:57;;;;;;;47.13;21.15;;;;;;;;;;6190885;23;20096;-89
2022/01/19 07:42:23;;;;;;;44.50;20.08;;;;;;;;;;6191234;23;20027;-90
2022/01/19 07:44:49;;;;;;;48.47;20.50;;;;;;;;;;6190764;23;20056;-90
2022/01/19 07:47:15;;;;;;;45.80;19.65;;;;;;;;;;6189948;23;20407;-90
2022/01/19 07:49:42;;;;;;;54.53;22.15;;;;;;;;;;6190144;23;20013;-90
2022/01/19 07:52:08;;;;;;;43.78;20.55;;;;;;;;;;6190757;23;20017;-89
2022/01/19 07:54:34;;;;;;;57.92;21.30;;;;;;;;;;6190368;23;20067;-91
2022/01/19 07:57:00;;;;;;;52.90;22.75;;;;;;;;;;6190347;23;20382;-91
2022/01/19 07:59:34;;;;;;;46.25;20.73;;;;;;;;;;6191475;23;20091;-92
2022/01/19 08:02:00;;;;;;;45.28;22.17;;;;;;;;;;6192046;23;20019;-92
2022/01/19 08:04:26;;;;;;;44.30;22.38;;;;;;;;;;6192609;23;20025;-92
2022/01/19 08:06:54;;;;;;;35.88;18.05;;;;;;;;;;6192812;23;20017;-92
2022/01/19 08:09:26;;;;;;;46.90;22.55;;;;;;;;;;6217848;23;20020;-92
2022/01/19 08:11:53;;;;;;;41.30;19.45;;;;;;;;;;6192768;23;20028;-91
2022/01/19 08:14:20;;;;;;;37.63;19.65;;;;;;;;;;6192877;23;20533;-92
2022/01/19 08:16:46;;;;;;;41.97;21.38;;;;;;;;;;6192608;23;20092;-92
2022/01/19 08:19:12;;;;;;;44.85;21.27;;;;;;;;;;6218123;23;20082;-92
2022/01/19 08:21:38;;;;;;;45.97;21.80;;;;;;;;;;6192041;23;20465;-92
2022/01/19 08:24:05;;;;;;;51.05;23.10;;;;;;;;;;6191446;23;20031;-92
2022/01/19 08:26:31;;;;;;;42.42;21.35;;;;;;;;;;6215177;23;20016;-93
2022/01/19 08:28:57;;;;;;;47.42;21.67;;;;;;;;;;6188745;23;20021;-92
2022/01/19 08:31:23;;;;;;;47.70;23.58;;;;;;;;;;6189659;23;20092;-92
2022/01/19 08:33:50;;;;;;;50.17;24.52;;;;;;;;;;6214870;23;20017;-92
2022/01/19 08:36:16;;;;;;;41.35;20.65;;;;;;;;;;6190506;23;20017;-92
2022/01/19 08:38:42;;;;;;;45.85;21.58;;;;;;;;;;6188808;23;20450;-89
2022/01/19 08:41:09;;;;;;;48.45;23.00;;;;;;;;;;6190641;23;20470;-89
2022/01/19 08:43:35;;;;;;;53.17;23.75;;;;;;;;;;6213625;23;20024;-90
2022/01/19 08:46:02;;;;;;;52.80;22.98;;;;;;;;;;6190717;23;20025;-90
2022/01/19 08:48:28;;;;;;;52.22;22.38;;;;;;;;;;6192249;23;20016;-89
2022/01/19 08:50:54;;;;;;;49.40;23.75;;;;;;;;;;6190960;23;20027;-90
2022/01/19 08:53:21;;;;;;;51.63;24.73;;;;;;;;;;6191088;23;20016;-92
2022/01/19 08:55:49;;;;;;;55.85;23.63;;;;;;;;;;6194662;23;20451;-90
2022/01/19 08:58:15;;;;;;;51.72;24.25;;;;;;;;;;6193129;23;20012;-91
2022/01/19 09:00:43;;;;;;;50.53;24.23;;;;;;;;;;6195309;23;20104;-91
2022/01/19 09:03:13;;;;;;;53.08;25.52;;;;;;;;;;6218147;23;20019;-92
2022/01/19 09:05:39;;;;;;;52.05;25.63;;;;;;;;;;6192992;23;20024;-91
2022/01/19 09:08:05;;;;;;;51.08;22.98;;;;;;;;;;6218522;23;20517;-91
2022/01/19 09:10:31;;;;;;;52.67;24.23;;;;;;;;;;6218623;23;20020;-90
2022/01/19 09:12:58;;;;;;;41.88;20.17;;;;;;;;;;6217169;23;20017;-91
2022/01/19 09:15:24;;;;;;;48.65;22.52;;;;;;;;;;6193045;23;20099;-91
2022/01/19 09:17:52;;;;;;;51.28;22.38;;;;;;;;;;6193099;23;20422;-90
2022/01/19 09:20:19;;;;;;;54.22;24.25;;;;;;;;;;6218623;23;20047;-91
2022/01/19 09:22:45;;;;;;;43.50;21.10;;;;;;;;;;6194719;23;20021;-91
2022/01/19 09:25:13;;;;;;;53.25;23.42;;;;;;;;;;6194641;23;20013;-91
2022/01/19 09:27:41;;;;;;;46.38;23.30;;;;;;;;;;6193525;23;20020;-90
2022/01/19 09:30:09;;;;;;;52.75;24.77;;;;;;;;;;6193992;23;20068;-92
2022/01/19 09:32:35;;;;;;;56.03;23.27;;;;;;;;;;6193897;23;20077;-92
2022/01/19 09:35:09;;;;;;;45.00;24.27;;;;;;;;;;6193232;23;20009;-91
2022/01/19 09:37:36;;;;;;;41.40;23.08;;;;;;;;;;6217936;23;20020;-92
2022/01/19 09:40:03;;;;;;;43.88;22.25;;;;;;;;;;6218064;23;20069;-90
2022/01/19 09:42:30;;;;;;;48.88;22.38;;;;;;;;;;6192324;23;20450;-92
2022/01/19 09:44:57;;;;;;;47.83;23.70;;;;;;;;;;6193575;23;20017;-91
2022/01/19 09:47:23;;;;;;;42.55;22.70;;;;;;;;;;6193326;23;20392;-91
2022/01/19 09:49:49;;;;;;;51.83;25.48;;;;;;;;;;6193053;23;20016;-91
2022/01/19 09:52:17;;;;;;;52.35;24.17;;;;;;;;;;6218177;23;20021;-91
2022/01/19 09:54:43;;;;;;;52.72;23.05;;;;;;;;;;6218966;23;20020;-92
2022/01/19 09:57:09;;;;;;;62.00;24.88;;;;;;;;;;6217545;23;20013;-92
2022/01/19 09:59:36;;;;;;;49.28;22.90;;;;;;;;;;6193201;23;20095;-91
2022/01/19 10:02:04;;;;;;;50.58;24.45;;;;;;;;;;6192412;23;20044;-91
2022/01/19 10:04:32;;;;;;;47.95;23.90;;;;;;;;;;6192440;23;20020;-92
2022/01/19 10:07:20;;;;;;;50.97;25.33;;;;;;;;;;6220282;23;20486;-91
2022/01/19 10:09:49;;;;;;;52.63;26.10;;;;;;;;;;6194227;23;20056;-90
2022/01/19 10:18:18;;;;;;;48.13;26.95;;;;;;;;;;6219428;23;20054;-90
2022/01/19 10:20:45;;;;;;;64.43;25.95;;;;;;;;;;6193395;23;20020;-89
2022/01/19 10:23:33;;;;;;;51.85;25.33;;;;;;;;;;6193641;23;20016;-89
2022/01/19 10:25:59;;;;;;;60.05;28.73;;;;;;;;;;6193345;23;20074;-89
2022/01/19 10:28:26;;;;;;;60.70;26.73;;;;;;;;;;6218583;23;20410;-90
2022/01/19 10:30:52;;;;;;;57.05;24.95;;;;;;;;;;6192544;23;20536;-89
2022/01/19 10:33:19;;;;;;;60.00;27.15;;;;;;;;;;6192954;23;20067;-89
2022/01/19 10:35:49;;;;;;;53.72;27.27;;;;;;;;;;6192628;23;20017;-89
2022/01/19 10:38:16;;;;;;;51.65;26.67;;;;;;;;;;6219414;23;20021;-89
2022/01/19 10:40:45;;;;;;;55.17;27.60;;;;;;;;;;6218587;23;20473;-89
2022/01/19 10:43:27;;;;;;;50.03;26.45;;;;;;;;;;6192428;23;20098;-89
2022/01/19 10:45:54;;;;;;;55.10;27.15;;;;;;;;;;6192518;23;20016;-89
2022/01/19 10:48:31;;;;;;;50.90;26.88;;;;;;;;;;6192177;23;20028;-89
2022/01/19 10:51:07;;;;;;;50.92;27.20;;;;;;;;;;6192375;23;20047;-89
2022/01/19 10:53:34;;;;;;;45.13;23.20;;;;;;;;;;6192811;23;20091;-89
2022/01/19 10:56:02;;;;;;;58.33;28.33;;;;;;;;;;6192437;23;20099;-89
2022/01/19 10:58:28;;;;;;;57.20;25.45;;;;;;;;;;6192061;23;20568;-88
2022/01/19 11:00:55;;;;;;;61.10;29.20;;;;;;;;;;6193346;23;20122;-89
2022/01/19 11:03:23;;;;;;;44.53;20.60;;;;;;;;;;6191679;23;20020;-88
2022/01/19 11:05:56;;;;;;;50.95;26.83;;;;;;;;;;6191242;23;20028;-89
2022/01/19 11:08:23;;;;;;;55.13;30.35;;;;;;;;;;6192167;23;20021;-89
2022/01/19 11:10:52;;;;;;;56.03;26.95;;;;;;;;;;6191366;23;20092;-89
2022/01/19 11:13:28;;;;;;;57.00;26.23;;;;;;;;;;6217669;23;20040;-89
2022/01/19 11:15:55;;;;;;;60.22;27.95;;;;;;;;;;6217786;23;20024;-89
2022/01/19 11:18:22;;;;;;;58.60;28.80;;;;;;;;;;6191694;23;20020;-89
2022/01/19 11:20:50;;;;;;;56.33;28.88;;;;;;;;;;6192068;23;20386;-89
2022/01/19 11:23:34;;;;;;;48.35;26.60;;;;;;;;;;6211507;23;20036;-89
2022/01/19 11:26:06;;;;;;;54.90;27.23;;;;;;;;;;6188133;23;20110;-88
2022/01/19 11:28:47;;;;;;;59.53;27.95;;;;;;;;;;6189441;23;20035;-89
2022/01/19 11:31:15;;;;;;;52.03;25.88;;;;;;;;;;6188289;23;20019;-89
2022/01/19 11:33:43;;;;;;;60.65;28.98;;;;;;;;;;6187976;23;20059;-89
2022/01/19 11:36:18;;;;;;;56.22;28.70;;;;;;;;;;6190160;23;20012;-89
2022/01/19 11:38:49;;;;;;;58.67;28.60;;;;;;;;;;6193218;23;20066;-89
2022/01/19 11:41:15;;;;;;;56.63;28.40;;;;;;;;;;6217291;23;20012;-89
2022/01/19 11:43:56;;;;;;;57.80;29.33;;;;;;;;;;6218863;23;20477;-89
2022/01/19 11:46:34;;;;;;;52.30;26.73;;;;;;;;;;6218802;23;20508;-89
2022/01/19 11:49:02;;;;;;;60.13;28.60;;;;;;;;;;6196783;23;20017;-88
2022/01/19 11:51:28;;;;;;;55.05;24.65;;;;;;;;;;6222128;23;20012;-89
2022/01/19 11:54:23;;;;;;;48.67;25.98;;;;;;;;;;6219464;23;20017;-89
2022/01/19 11:57:04;;;;;;;48.05;23.05;;;;;;;;;;6078496;23;20454;-89
2022/01/19 11:59:53;;;;;;;41.97;22.73;;;;;;;;;;6102168;23;20021;-89
2022/01/19 12:02:36;;;;;;;43.88;21.27;;;;;;;;;;6077353;23;20152;-89
2022/01/19 12:05:11;;;;;;;45.20;22.38;;;;;;;;;;6077262;23;20018;-89
2022/01/19 12:07:55;;;;;;;39.50;19.38;;;;;;;;;;6077509;23;20026;-89
2022/01/19 12:10:42;;;;;;;27.25;15.30;;;;;;;;;;6077743;23;20022;-89
2022/01/19 12:14:07;;;;;;;31.35;14.93;;;;;;;;;;6100656;23;20022;-89
2022/01/19 12:16:44;;;;;;;36.67;16.83;;;;;;;;;;6072522;23;20096;-87
2022/01/19 12:19:06;;;;;;;38.53;16.15;;;;;;;;;;6077005;23;20101;-88
2022/01/19 12:21:33;;;;;;;30.60;16.02;;;;;;;;;;6100880;23;20073;-90
2022/01/19 12:24:19;;;;;;;47.78;19.33;;;;;;;;;;6076439;23;20018;-90
2022/01/19 12:29:51;;;;;;;41.15;19.00;;;;;;;;;;6315144;22;20116;-92
2022/01/19 12:32:18;;;;;;;40.08;17.20;;;;;;;;;;6260448;22;20023;-93
2022/01/19 12:34:58;;;;;;;48.17;20.67;;;;;;;;;;6260470;22;20089;-92
2022/01/19 12:37:27;;;;;;;38.47;18.00;;;;;;;;;;6261919;22;20055;-91
2022/01/19 12:40:19;;;;;;;36.05;18.13;;;;;;;;;;6261432;22;20120;-93
2022/01/19 12:43:01;;;;;;;33.88;18.98;;;;;;;;;;6263865;22;20015;-93
2022/01/19 12:45:31;;;;;;;;;;;6.00;99.90;;;;;;6262857;22;20018;-93
2022/01/19 12:48:00;;;;;;;47.78;18.70;;;;;;;;;;6251988;22;19945;-91
2022/01/19 12:50:46;;;;;;;34.35;18.73;;;;;;;;;;6257440;22;20016;-91
2022/01/19 12:53:24;;;;;;;25.98;14.23;;;;;;;;;;6258856;22;20045;-90
2022/01/19 12:55:52;;;;;;;41.20;17.30;;;;;;;;;;6256574;22;20015;-90
2022/01/19 13:01:47;;;;;;;39.67;16.75;;;;;;;;;;6100779;23;20029;-90
2022/01/19 13:04:35;;;;;;;32.67;15.43;;;;;;;;;;6076063;23;20018;-90
2022/01/19 13:07:21;;;;;;;30.20;16.45;;;;;;;;;;6075458;23;20027;-91
2022/01/19 13:10:05;;;;;;;37.65;16.13;;;;;;;;;;6049281;23;20499;-90
2022/01/19 13:12:37;;;;;;;28.85;16.63;;;;;;;;;;6071067;23;20022;-89
2022/01/19 13:15:04;;;;;;;30.40;16.05;;;;;;;;;;6047240;23;20046;-89
2022/01/19 13:17:42;;;;;;;39.90;16.45;;;;;;;;;;6072028;23;20034;-89
2022/01/19 13:20:09;;;;;;;26.95;13.68;;;;;;;;;;6048063;23;20097;-89
2022/01/19 13:22:52;;;;;;;29.77;14.32;;;;;;;;;;6047976;23;20014;-90
2022/01/19 13:25:22;;;;;;;20.20;10.35;;;;;;;;;;6048384;23;20018;-90
2022/01/19 13:27:49;;;;;;;20.40;12.20;;;;;;;;;;6046510;23;20532;-91
2022/01/19 13:30:16;;;;;;;31.45;13.93;;;;;;;;;;6048738;23;20019;-91
2022/01/19 13:32:43;;;;;;;31.30;14.50;;;;;;;;;;6092387;23;20075;-90
2022/01/19 13:35:10;;;;;;;34.00;14.55;;;;;;;;;;6105731;23;20014;-90
2022/01/19 13:37:42;;;;;;;21.50;11.82;;;;;;;;;;6127816;23;20058;-90
2022/01/19 13:40:11;;;;;;;25.55;12.30;;;;;;;;;;6245161;23;20012;-91
2022/01/19 13:42:45;;;;;;;29.52;14.68;;;;;;;;;;6219602;23;20020;-90
2022/01/19 13:45:19;;;;;;;20.10;12.13;;;;;;;;;;6220062;23;20019;-89
2022/01/19 13:48:05;;;;;;;38.88;15.30;;;;;;;;;;6239520;22;20019;-90
2022/01/19 13:50:36;;;;;;;23.45;13.10;;;;;;;;;;6250540;22;20122;-91
2022/01/19 13:53:02;;;;;;;30.88;14.02;;;;;;;;;;6250270;22;20330;-90
2022/01/19 13:55:28;;;;;;;28.95;13.60;;;;;;;;;;6249883;22;20461;-90
2022/01/19 13:58:05;;;;;;;34.60;13.10;;;;;;;;;;6249737;22;20016;-90
2022/01/19 14:00:31;;;;;;;26.02;11.73;;;;;;;;;;6250657;22;20105;-90
2022/01/19 14:03:01;;;;;;;26.90;14.65;;;;;;;;;;6224061;22;20012;-90
2022/01/19 14:05:38;;;;;;;25.95;13.98;;;;;;;;;;6224951;22;20051;-89
2022/01/19 14:08:05;;;;;;;28.85;13.50;;;;;;;;;;6224329;22;20526;-89
2022/01/19 14:10:40;;;;;;;30.70;11.98;;;;;;;;;;6225427;22;20064;-90
2022/01/19 14:13:27;;;;;;;26.58;15.20;;;;;;;;;;6224988;22;20054;-88
2022/01/19 14:15:55;;;;;;;27.23;13.02;;;;;;;;;;6224633;22;20095;-89
2022/01/19 14:18:21;;;;;;;25.05;12.32;;;;;;;;;;6248527;22;20019;-89
2022/01/19 14:21:06;;;;;;;25.73;11.60;;;;;;;;;;6222386;22;20062;-90
2022/01/19 14:23:33;;;;;;;27.08;12.00;;;;;;;;;;6224652;22;20038;-88
2022/01/19 14:26:06;;;;;;;28.00;13.02;;;;;;;;;;6223440;22;20031;-89
2022/01/19 14:28:33;;;;;;;25.30;12.43;;;;;;;;;;6224729;22;20012;-93
2022/01/19 14:31:12;;;;;;;21.58;10.50;;;;;;;;;;6224474;22;20023;-90
2022/01/19 14:33:47;;;;;;;32.70;14.10;;;;;;;;;;6225817;22;20015;-93
2022/01/19 14:36:20;;;;;;;22.40;10.38;;;;;;;;;;6225142;22;20018;-92
2022/01/19 14:38:47;;;;;;;27.10;10.80;;;;;;;;;;6224711;22;20441;-90
2022/01/19 14:41:22;;;;;;;29.85;12.07;;;;;;;;;;6225312;22;20012;-91
2022/01/19 14:43:57;;;;;;;24.83;11.05;;;;;;;;;;6250245;22;20335;-89
2022/01/19 14:46:41;;;;;;;34.65;12.52;;;;;;;;;;6224542;22;20020;-91
2022/01/19 14:49:07;;;;;;;28.20;11.20;;;;;;;;;;6194184;23;20099;-89
2022/01/19 14:51:37;;;;;;;24.60;11.38;;;;;;;;;;6195980;23;20461;-91
2022/01/19 14:54:08;;;;;;;20.80;8.88;;;;;;;;;;6221121;23;20012;-91
2022/01/19 14:56:35;;;;;;;20.15;8.48;;;;;;;;;;6197375;23;20445;-94
2022/01/19 14:59:01;;;;;;;24.58;8.38;;;;;;;;;;6197510;23;20016;-92
2022/01/19 15:01:27;;;;;;;17.50;9.85;;;;;;;;;;6197364;23;20043;-91
2022/01/19 15:03:54;;;;;;;17.85;8.43;;;;;;;;;;6196246;23;20023;-91
2022/01/19 15:06:21;;;;;;;16.05;7.30;;;;;;;;;;6197272;23;20070;-93
2022/01/19 15:08:47;;;;;;;23.05;8.75;;;;;;;;;;6196268;23;20012;-91
2022/01/19 15:11:15;;;;;;;10.93;5.68;;;;;;;;;;6196476;23;20016;-89
2022/01/19 15:13:42;;;;;;;25.67;7.70;;;;;;;;;;6195929;23;20016;-90
2022/01/19 15:16:08;;;;;;;12.10;7.28;;;;;;;;;;6196070;23;20012;-90
2022/01/19 15:18:34;;;;;;;18.42;8.52;;;;;;;;;;6196477;23;20016;-91
2022/01/19 15:21:00;;;;;;;15.82;6.57;;;;;;;;;;6196286;23;20016;-92
2022/01/19 15:23:26;;;;;;;17.83;6.80;;;;;;;;;;6195539;23;20012;-92
2022/01/19 15:25:52;;;;;;;17.90;7.85;;;;;;;;;;6220982;23;20043;-91
2022/01/19 15:28:18;;;;;;;21.10;8.18;;;;;;;;;;6197612;23;20342;-96
2022/01/19 15:30:48;;;;;;;21.20;8.73;;;;;;;;;;6196385;23;20016;-90
2022/01/19 15:33:18;;;;;;;22.60;10.88;;;;;;;;;;6198123;23;20058;-92
2022/01/19 15:35:44;;;;;;;23.13;8.38;;;;;;;;;;6197828;23;20429;-91
2022/01/19 15:38:10;;;;;;;31.55;8.98;;;;;;;;;;6197511;23;20020;-91
2022/01/19 15:40:38;;;;;;;19.38;8.07;;;;;;;;;;6197950;23;20012;-91
2022/01/19 15:43:05;;;;;;;27.20;7.55;;;;;;;;;;6198317;23;20024;-91
2022/01/19 15:45:35;;;;;;;21.10;8.68;;;;;;;;;;6196760;23;20346;-94
2022/01/19 15:48:01;;;;;;;15.35;6.45;;;;;;;;;;6208784;23;20020;-91
2022/01/19 15:50:28;;;;;;;16.27;8.18;;;;;;;;;;6196997;23;20020;-92
2022/01/19 15:52:54;;;;;;;23.92;6.75;;;;;;;;;;6221278;23;20062;-92
2022/01/19 15:55:20;;;;;;;38.80;9.10;;;;;;;;;;6221612;23;20095;-92
2022/01/19 15:57:46;;;;;;;20.00;6.55;;;;;;;;;;6196442;23;20016;-91
2022/01/19 16:00:13;;;;;;;17.30;6.07;;;;;;;;;;6196768;23;20012;-92
2022/01/19 16:02:39;;;;;;;25.20;7.03;;;;;;;;;;6220503;23;20487;-90
2022/01/19 16:05:05;;;;;;;30.77;6.35;;;;;;;;;;6196650;23;20095;-91
2022/01/19 16:07:32;;;;;;;13.10;5.97;;;;;;;;;;6196992;23;20100;-91
2022/01/19 16:10:01;;;;;;;21.38;7.32;;;;;;;;;;6197481;23;20008;-91